createdAt,value
2022-08-20T00:02:16.719Z,81.71
2022-08-20T00:04:46.367Z,81.77
2022-08-20T00:07:16.643Z,81.28
2022-08-20T00:09:44.531Z,81.15
2022-08-20T00:12:13.701Z,81.56
2022-08-20T00:14:43.173Z,81.97
2022-08-20T00:17:12.130Z,81.91
2022-08-20T00:19:39.018Z,81.67
2022-08-20T00:22:06.105Z,81.59
2022-08-20T00:24:33.026Z,82.13
2022-08-20T00:27:02.703Z,81.33
2022-08-20T00:29:31.795Z,81.79
2022-08-20T00:32:01.408Z,82.48
2022-08-20T00:34:28.972Z,82.87
2022-08-20T00:36:55.868Z,82.26
2022-08-20T00:39:22.858Z,83.35
2022-08-20T00:41:51.950Z,82.54
2022-08-20T00:44:22.834Z,82.51
2022-08-20T00:46:53.550Z,82.25
2022-08-20T00:49:33.555Z,82.05
2022-08-20T00:52:22.041Z,82.51
2022-08-20T00:54:59.396Z,82.30
2022-08-20T00:57:58.917Z,82.16
2022-08-20T01:00:38.287Z,82.24
2022-08-20T01:03:16.513Z,82.00
2022-08-20T01:05:51.346Z,82.38
2022-08-20T01:08:24.626Z,82.54
2022-08-20T01:11:14.349Z,82.98
2022-08-20T01:13:46.569Z,83.05
2022-08-20T01:16:26.647Z,82.76
2022-08-20T01:18:57.674Z,82.54
2022-08-20T01:21:28.831Z,83.18
2022-08-20T01:24:22.644Z,83.97
2022-08-20T01:26:50.101Z,84.08
2022-08-20T01:29:28.662Z,84.51
2022-08-20T01:32:01.251Z,84.16
2022-08-20T01:34:30.789Z,84.15
2022-08-20T01:36:59.320Z,84.58
2022-08-20T01:39:36.414Z,84.36
2022-08-20T01:42:15.379Z,84.24
2022-08-20T01:44:50.036Z,84.64
2022-08-20T01:47:27.019Z,84.13
2022-08-20T01:49:59.961Z,84.58
2022-08-20T01:52:33.257Z,84.34
2022-08-20T01:55:00.203Z,84.10
2022-08-20T01:57:32.207Z,84.41
2022-08-20T02:00:07.194Z,85.71
2022-08-20T02:02:36.231Z,84.50
2022-08-20T02:05:06.213Z,83.83
2022-08-20T02:07:37.673Z,84.01
2022-08-20T02:10:10.925Z,83.36
2022-08-20T02:12:39.861Z,83.55
2022-08-20T02:15:10.399Z,82.86
2022-08-20T02:17:39.235Z,82.60
2022-08-20T02:20:37.913Z,82.80
2022-08-20T02:23:06.071Z,83.16
2022-08-20T02:25:36.635Z,83.28
2022-08-20T02:28:09.238Z,83.16
2022-08-20T02:30:46.972Z,84.07
2022-08-20T02:33:19.635Z,83.69
2022-08-20T02:35:52.233Z,83.16
2022-08-20T02:38:22.772Z,82.92
2022-08-20T02:40:49.996Z,83.02
2022-08-20T02:43:20.093Z,83.44
2022-08-20T02:45:49.409Z,84.77
2022-08-20T02:48:23.336Z,86.31
2022-08-20T02:50:58.385Z,86.79
2022-08-20T02:53:36.750Z,86.26
2022-08-20T02:56:08.516Z,84.79
2022-08-20T02:58:36.117Z,84.47
2022-08-20T03:01:06.331Z,83.51
2022-08-20T03:03:33.781Z,83.31
2022-08-20T03:06:06.650Z,83.24
2022-08-20T03:08:34.209Z,83.37
2022-08-20T03:11:01.061Z,83.06
2022-08-20T03:13:28.001Z,82.22
2022-08-20T03:16:00.790Z,82.00
2022-08-20T03:18:34.414Z,82.87
2022-08-20T03:21:05.677Z,81.57
2022-08-20T03:23:36.664Z,81.03
2022-08-20T03:26:12.948Z,81.34
2022-08-20T03:28:41.109Z,81.45
2022-08-20T03:31:08.393Z,80.99
2022-08-20T03:33:39.428Z,81.71
2022-08-20T03:36:22.104Z,81.59
2022-08-20T03:38:59.152Z,81.15
2022-08-20T03:41:28.998Z,81.43
2022-08-20T03:44:01.127Z,81.40
2022-08-20T03:46:28.780Z,80.85
2022-08-20T03:48:59.541Z,80.00
2022-08-20T03:51:31.069Z,79.23
2022-08-20T03:53:58.552Z,78.87
2022-08-20T03:56:31.681Z,77.13
2022-08-20T03:59:03.540Z,77.04
2022-08-20T04:01:44.477Z,77.00
2022-08-20T04:04:15.545Z,78.30
2022-08-20T04:06:43.626Z,78.39
2022-08-20T04:09:13.773Z,78.09
2022-08-20T04:11:42.378Z,77.58
2022-08-20T04:14:19.525Z,77.02
2022-08-20T04:16:47.584Z,75.88
2022-08-20T04:19:16.496Z,75.69
2022-08-20T04:21:48.600Z,76.42
2022-08-20T04:24:22.614Z,75.81
2022-08-20T04:26:59.850Z,75.48
2022-08-20T04:29:32.297Z,75.63
2022-08-20T04:32:02.767Z,75.74
2022-08-20T04:34:33.718Z,75.91
2022-08-20T04:37:00.734Z,75.65
2022-08-20T04:39:32.279Z,75.64
2022-08-20T04:42:03.849Z,75.28
2022-08-20T04:44:30.712Z,75.93
2022-08-20T04:46:59.771Z,75.61
2022-08-20T04:49:29.163Z,75.81
2022-08-20T04:51:59.489Z,75.59
2022-08-20T04:54:26.486Z,75.78
2022-08-20T04:56:53.408Z,76.18
2022-08-20T04:59:20.265Z,75.57
2022-08-20T05:01:49.672Z,76.09
2022-08-20T05:04:16.622Z,75.21
2022-08-20T05:06:43.516Z,75.29
2022-08-20T05:09:10.371Z,74.49
2022-08-20T05:11:37.334Z,74.73
2022-08-20T05:14:08.968Z,75.08
2022-08-20T05:16:40.932Z,74.91
2022-08-20T05:19:12.242Z,75.17
2022-08-20T05:21:40.281Z,75.05
2022-08-20T05:24:10.165Z,74.82
2022-08-20T05:26:37.172Z,74.97
2022-08-20T05:29:07.558Z,75.13
2022-08-20T05:31:35.171Z,75.58
2022-08-20T05:34:09.578Z,75.09
2022-08-20T05:36:49.068Z,75.06
2022-08-20T05:39:18.404Z,75.02
2022-08-20T05:41:45.683Z,74.98
2022-08-20T05:44:14.227Z,74.36
2022-08-20T05:46:43.879Z,74.67
2022-08-20T05:49:15.597Z,74.96
2022-08-20T05:51:43.859Z,75.62
2022-08-20T05:54:11.340Z,75.79
2022-08-20T05:56:41.381Z,76.03
2022-08-20T05:59:13.985Z,75.41
2022-08-20T06:01:46.650Z,76.81
2022-08-20T06:04:24.912Z,76.32
2022-08-20T06:07:04.205Z,75.67
2022-08-20T06:09:32.781Z,75.49
2022-08-20T06:12:07.716Z,76.19
2022-08-20T06:14:35.427Z,76.88
2022-08-20T06:17:15.363Z,76.64
2022-08-20T06:19:44.729Z,77.27
2022-08-20T06:22:19.571Z,78.04
2022-08-20T06:24:55.715Z,77.20
2022-08-20T06:27:26.132Z,77.44
2022-08-20T06:29:56.027Z,76.77
2022-08-20T06:32:28.773Z,77.55
2022-08-20T06:35:02.170Z,76.86
2022-08-20T06:37:36.546Z,77.39
2022-08-20T06:40:10.235Z,77.57
2022-08-20T06:42:47.771Z,77.66
2022-08-20T06:45:19.178Z,77.67
2022-08-20T06:47:47.606Z,77.74
2022-08-20T06:50:20.346Z,76.87
2022-08-20T06:52:51.877Z,76.86
2022-08-20T06:55:26.228Z,76.78
2022-08-20T06:58:35.792Z,76.92
2022-08-20T07:01:09.096Z,76.68
2022-08-20T07:03:38.310Z,76.03
2022-08-20T07:06:08.390Z,76.90
2022-08-20T07:08:38.288Z,76.21
2022-08-20T07:11:07.158Z,75.97
2022-08-20T07:13:40.925Z,75.65
2022-08-20T07:16:10.236Z,76.16
2022-08-20T07:18:41.811Z,76.98
2022-08-20T07:21:12.166Z,76.63
2022-08-20T07:23:39.048Z,75.32
2022-08-20T07:26:08.097Z,75.32
2022-08-20T07:28:34.966Z,76.57
2022-08-20T07:31:20.517Z,76.28
2022-08-20T07:33:50.214Z,75.31
2022-08-20T07:36:20.342Z,74.93
2022-08-20T07:38:52.628Z,74.16
2022-08-20T07:41:20.866Z,73.14
2022-08-20T07:43:52.407Z,72.12
2022-08-20T07:46:23.769Z,72.25
2022-08-20T07:49:00.360Z,72.31
2022-08-20T07:51:32.806Z,70.72
2022-08-20T07:54:02.047Z,70.54
2022-08-20T07:56:29.549Z,69.84
2022-08-20T07:59:01.546Z,70.10
2022-08-20T08:01:31.299Z,69.33
2022-08-20T08:03:59.700Z,69.05
2022-08-20T08:06:31.023Z,69.43
2022-08-20T08:09:08.716Z,70.32
2022-08-20T08:11:39.772Z,69.02
2022-08-20T08:14:11.562Z,67.71
2022-08-20T08:16:45.343Z,67.35
2022-08-20T08:19:15.020Z,66.85
2022-08-20T08:21:43.492Z,65.89
2022-08-20T08:24:12.680Z,65.07
2022-08-20T08:26:41.322Z,64.26
2022-08-20T08:29:08.208Z,64.75
2022-08-20T08:31:35.408Z,65.18
2022-08-20T08:34:02.357Z,65.10
2022-08-20T08:36:29.262Z,64.32
2022-08-20T08:38:56.622Z,63.83
2022-08-20T08:41:57.285Z,62.41
2022-08-20T08:44:36.008Z,60.94
2022-08-20T08:47:18.501Z,60.51
2022-08-20T08:49:47.570Z,58.64
2022-08-20T08:52:34.439Z,59.03
2022-08-20T08:55:06.443Z,58.59
2022-08-20T08:57:34.286Z,58.60
2022-08-20T09:00:17.262Z,58.13
2022-08-20T09:03:04.507Z,58.28
2022-08-20T09:05:51.384Z,58.91
2022-08-20T09:08:25.667Z,57.69
2022-08-20T09:10:52.576Z,57.71
2022-08-20T09:13:22.327Z,56.48
2022-08-20T09:15:52.207Z,57.01
2022-08-20T09:18:21.534Z,57.33
2022-08-20T09:20:50.569Z,57.60
2022-08-20T09:23:22.237Z,55.01
2022-08-20T09:25:49.441Z,54.51
2022-08-20T09:28:16.289Z,51.98
2022-08-20T09:30:46.036Z,50.48
2022-08-20T09:33:13.860Z,49.27
2022-08-20T09:35:44.825Z,47.91
2022-08-20T09:38:16.272Z,48.65
2022-08-20T09:40:44.466Z,48.44
2022-08-20T09:43:16.482Z,49.20
2022-08-20T09:45:43.400Z,50.63
2022-08-20T09:48:10.666Z,50.75
2022-08-20T09:50:44.153Z,52.30
2022-08-20T09:53:11.764Z,51.52
2022-08-20T09:55:42.726Z,52.74
2022-08-20T09:58:53.510Z,52.99
2022-08-20T10:01:25.028Z,52.59
2022-08-20T10:03:51.962Z,53.38
2022-08-20T10:06:22.479Z,53.77
2022-08-20T10:08:52.955Z,52.99
2022-08-20T10:11:19.928Z,53.27
2022-08-20T10:13:49.891Z,52.66
2022-08-20T10:16:16.734Z,50.28
2022-08-20T10:18:43.595Z,48.50
2022-08-20T10:21:12.046Z,48.66
2022-08-20T10:23:38.976Z,49.40
2022-08-20T10:26:10.103Z,48.24
2022-08-20T10:28:37.707Z,48.08
2022-08-20T10:31:12.178Z,48.49
2022-08-20T10:33:41.121Z,48.69
2022-08-20T10:36:17.360Z,48.96
2022-08-20T10:38:48.481Z,48.53
2022-08-20T10:41:17.939Z,48.09
2022-08-20T10:43:47.645Z,49.28
2022-08-20T10:46:17.114Z,49.41
2022-08-20T10:48:44.329Z,48.70
2022-08-20T10:51:11.247Z,49.12
2022-08-20T10:53:38.964Z,48.88
2022-08-20T10:56:06.103Z,48.56
2022-08-20T10:58:39.622Z,48.47
2022-08-20T11:01:09.955Z,47.62
2022-08-20T11:03:36.913Z,47.31
2022-08-20T11:06:06.944Z,45.92
2022-08-20T11:08:36.394Z,45.99
2022-08-20T11:11:06.860Z,45.54
2022-08-20T11:13:37.078Z,44.82
2022-08-20T11:16:07.656Z,43.49
2022-08-20T11:18:37.028Z,43.80
2022-08-20T11:21:04.068Z,42.50
2022-08-20T11:23:33.947Z,42.19
2022-08-20T11:26:00.939Z,42.43
2022-08-20T11:28:32.380Z,42.42
2022-08-20T11:31:00.939Z,42.01
2022-08-20T11:33:28.119Z,42.91
2022-08-20T11:35:55.052Z,42.60
2022-08-20T11:38:21.968Z,43.87
2022-08-20T11:40:53.417Z,43.46
2022-08-20T11:43:20.423Z,43.36
2022-08-20T11:45:52.841Z,42.60
2022-08-20T11:48:20.202Z,42.52
2022-08-20T11:50:48.625Z,42.06
2022-08-20T11:53:17.823Z,41.96
2022-08-20T11:55:45.293Z,41.93
2022-08-20T11:58:14.901Z,42.62
2022-08-20T12:00:44.020Z,43.11
2022-08-20T12:03:13.883Z,42.92
2022-08-20T12:05:46.093Z,43.11
2022-08-20T12:08:26.442Z,43.38
2022-08-20T12:11:04.136Z,43.41
2022-08-20T12:13:47.765Z,43.78
2022-08-20T12:16:21.282Z,43.76
2022-08-20T12:18:48.767Z,43.57
2022-08-20T12:21:20.382Z,44.55
2022-08-20T12:23:48.127Z,44.46
2022-08-20T12:26:17.917Z,44.17
2022-08-20T12:28:44.759Z,44.01
2022-08-20T12:31:11.640Z,44.39
2022-08-20T12:33:40.633Z,43.82
2022-08-20T12:36:07.960Z,43.10
2022-08-20T12:38:35.242Z,42.90
2022-08-20T12:41:02.613Z,42.47
2022-08-20T12:43:29.614Z,42.27
2022-08-20T12:45:56.493Z,42.16
2022-08-20T12:48:23.337Z,42.64
2022-08-20T12:50:54.928Z,42.33
2022-08-20T12:53:24.804Z,43.37
2022-08-20T12:55:51.712Z,43.23
2022-08-20T12:58:19.384Z,43.85
2022-08-20T13:00:50.701Z,43.90
2022-08-20T13:03:20.228Z,43.58
2022-08-20T13:05:48.565Z,44.13
2022-08-20T13:08:17.574Z,44.55
2022-08-20T13:10:47.345Z,43.38
2022-08-20T13:13:19.924Z,43.39
2022-08-20T13:15:49.068Z,43.08
2022-08-20T13:18:18.195Z,43.11
2022-08-20T13:20:48.227Z,42.20
2022-08-20T13:23:20.221Z,41.80
2022-08-20T13:25:47.279Z,40.74
2022-08-20T13:28:16.387Z,40.71
2022-08-20T13:30:43.324Z,40.77
2022-08-20T13:33:12.516Z,40.77
2022-08-20T13:35:41.660Z,40.91
2022-08-20T13:38:10.958Z,39.89
2022-08-20T13:40:38.010Z,40.42
2022-08-20T13:43:07.755Z,40.05
2022-08-20T13:45:40.769Z,40.79
2022-08-20T13:48:10.034Z,40.39
2022-08-20T13:50:42.848Z,39.61
2022-08-20T13:53:09.717Z,38.93
2022-08-20T13:55:39.578Z,38.55
2022-08-20T13:58:10.239Z,38.79
2022-08-20T14:00:37.897Z,38.59
2022-08-20T14:03:08.788Z,39.15
2022-08-20T14:05:36.633Z,39.43
2022-08-20T14:08:22.767Z,38.80
2022-08-20T14:10:52.764Z,39.10
2022-08-20T14:13:27.707Z,39.65
2022-08-20T14:15:56.467Z,38.92
2022-08-20T14:18:26.030Z,39.56
2022-08-20T14:20:52.992Z,38.98
2022-08-20T14:23:22.290Z,39.34
2022-08-20T14:25:52.885Z,39.36
2022-08-20T14:28:23.728Z,39.07
2022-08-20T14:30:52.821Z,37.88
2022-08-20T14:33:22.061Z,38.75
2022-08-20T14:35:52.461Z,38.64
2022-08-20T14:38:19.551Z,37.78
2022-08-20T14:40:47.334Z,37.95
2022-08-20T14:43:14.227Z,37.32
2022-08-20T14:45:41.139Z,36.90
2022-08-20T14:48:11.043Z,36.63
2022-08-20T14:50:39.090Z,36.06
2022-08-20T14:53:06.629Z,36.16
2022-08-20T14:55:37.536Z,35.72
2022-08-20T14:58:12.565Z,35.47
2022-08-20T15:00:39.944Z,35.14
2022-08-20T15:03:09.123Z,35.66
2022-08-20T15:05:39.162Z,35.30
2022-08-20T15:08:07.604Z,36.51
2022-08-20T15:10:39.694Z,36.74
2022-08-20T15:13:07.248Z,36.32
2022-08-20T15:15:35.013Z,36.73
2022-08-20T15:18:04.456Z,36.33
2022-08-20T15:20:34.099Z,36.90
2022-08-20T15:23:01.965Z,36.26
2022-08-20T15:25:36.581Z,37.03
2022-08-20T15:28:11.611Z,37.09
2022-08-20T15:30:42.344Z,37.54
2022-08-20T15:33:13.531Z,38.65
2022-08-20T15:35:40.644Z,38.74
2022-08-20T15:38:13.130Z,38.33
2022-08-20T15:40:40.271Z,38.41
2022-08-20T15:43:07.551Z,39.24
2022-08-20T15:45:38.158Z,38.94
2022-08-20T15:48:19.189Z,39.01
2022-08-20T15:51:28.263Z,38.67
2022-08-20T15:54:08.478Z,39.44
2022-08-20T15:56:51.857Z,38.96
2022-08-20T15:59:47.152Z,38.55
2022-08-20T16:02:50.925Z,40.32
2022-08-20T16:05:44.995Z,40.21
2022-08-20T16:08:33.200Z,40.36
2022-08-20T16:11:03.211Z,40.33
2022-08-20T16:13:40.659Z,40.07
2022-08-20T16:16:17.388Z,40.44
2022-08-20T16:18:49.750Z,40.33
2022-08-20T16:21:21.437Z,40.50
2022-08-20T16:23:49.592Z,40.38
2022-08-20T16:26:53.679Z,40.80
2022-08-20T16:29:39.949Z,40.02
2022-08-20T16:32:18.895Z,40.05
2022-08-20T16:34:56.916Z,39.84
2022-08-20T16:37:41.915Z,39.88
2022-08-20T16:40:49.395Z,39.75
2022-08-20T16:43:41.011Z,40.37
2022-08-20T16:46:19.353Z,40.14
2022-08-20T16:48:56.034Z,40.21
2022-08-20T16:51:35.018Z,40.01
2022-08-20T16:54:04.443Z,40.89
2022-08-20T16:56:57.650Z,39.80
2022-08-20T16:59:27.016Z,40.29
2022-08-20T17:02:10.226Z,39.82
2022-08-20T17:04:50.521Z,40.18
2022-08-20T17:07:50.685Z,39.86
2022-08-20T17:10:25.084Z,40.29
2022-08-20T17:13:28.045Z,40.69
2022-08-20T17:16:01.221Z,39.89
2022-08-20T17:18:39.135Z,39.91
2022-08-20T17:21:23.303Z,40.27
2022-08-20T17:24:06.626Z,40.80
2022-08-20T17:26:45.101Z,40.93
2022-08-20T17:29:19.278Z,41.29
2022-08-20T17:31:53.042Z,41.23
2022-08-20T17:34:24.880Z,41.39
2022-08-20T17:37:08.170Z,41.59
2022-08-20T17:39:44.823Z,41.27
2022-08-20T17:42:26.165Z,41.25
2022-08-20T17:45:08.299Z,41.30
2022-08-20T17:47:40.133Z,41.29
2022-08-20T17:50:20.753Z,41.97
2022-08-20T17:52:58.877Z,41.30
2022-08-20T17:55:26.554Z,41.85
2022-08-20T17:58:00.717Z,41.42
2022-08-20T18:00:28.750Z,41.68
2022-08-20T18:03:13.715Z,41.62
2022-08-20T18:05:45.556Z,42.28
2022-08-20T18:09:06.177Z,42.22
2022-08-20T18:11:42.666Z,42.39
2022-08-20T18:15:14.629Z,42.66
2022-08-20T18:18:23.260Z,42.75
2022-08-20T18:21:15.320Z,43.16
2022-08-20T18:23:51.921Z,43.32
2022-08-20T18:26:45.255Z,42.88
2022-08-20T18:29:18.720Z,43.12
2022-08-20T18:32:36.976Z,43.55
2022-08-20T18:35:30.940Z,43.47
2022-08-20T18:37:58.175Z,43.33
2022-08-20T18:40:33.575Z,44.13
2022-08-20T18:43:16.444Z,44.07
2022-08-20T18:45:43.341Z,44.40
2022-08-20T18:48:27.025Z,44.51
2022-08-20T18:50:57.370Z,44.68
2022-08-20T18:53:34.177Z,45.08
2022-08-20T18:56:08.788Z,44.71
2022-08-20T18:58:58.953Z,45.38
2022-08-20T19:01:26.046Z,45.12
2022-08-20T19:03:55.808Z,45.77
2022-08-20T19:07:00.306Z,45.36
2022-08-20T19:10:04.049Z,45.34
2022-08-20T19:13:17.166Z,45.83
2022-08-20T19:15:52.385Z,45.69
2022-08-20T19:18:54.195Z,45.77
2022-08-20T19:21:42.321Z,46.35
2022-08-20T19:24:12.904Z,45.83
2022-08-20T19:27:01.835Z,46.03
2022-08-20T19:29:39.244Z,46.27
2022-08-20T19:32:10.144Z,46.34
2022-08-20T19:34:37.134Z,47.22
2022-08-20T19:37:35.824Z,46.98
2022-08-20T19:40:40.113Z,46.71
2022-08-20T19:43:19.132Z,46.40
2022-08-20T19:45:54.687Z,46.95
2022-08-20T19:48:53.085Z,47.29
2022-08-20T19:52:00.672Z,47.43
2022-08-20T19:54:29.455Z,47.40
2022-08-20T19:57:03.800Z,48.03
2022-08-20T19:59:30.785Z,47.49
2022-08-20T20:02:04.020Z,47.90
2022-08-20T20:04:55.106Z,47.34
2022-08-20T20:08:02.754Z,48.35
2022-08-20T20:10:39.434Z,48.52
2022-08-20T20:13:13.641Z,49.23
2022-08-20T20:15:43.623Z,49.38
2022-08-20T20:18:13.765Z,48.73
2022-08-20T20:20:58.011Z,49.41
2022-08-20T20:23:45.833Z,49.99
2022-08-20T20:26:20.243Z,50.44
2022-08-20T20:29:00.697Z,50.49
2022-08-20T20:31:43.264Z,50.92
2022-08-20T20:34:16.307Z,50.03
2022-08-20T20:36:47.117Z,50.70
2022-08-20T20:40:19.051Z,49.95
2022-08-20T20:43:13.395Z,51.64
2022-08-20T20:45:54.471Z,51.46
2022-08-20T20:48:42.678Z,51.44
2022-08-20T20:51:17.751Z,51.51
2022-08-20T20:53:54.891Z,50.88
2022-08-20T20:56:31.754Z,50.76
2022-08-20T20:59:06.132Z,51.00
2022-08-20T21:01:49.025Z,50.92
2022-08-20T21:04:21.941Z,51.61
2022-08-20T21:06:53.653Z,51.52
2022-08-20T21:09:23.923Z,52.87
2022-08-20T21:11:51.368Z,53.00
2022-08-20T21:14:21.245Z,53.06
2022-08-20T21:16:48.373Z,52.70
2022-08-20T21:19:16.119Z,53.94
2022-08-20T21:21:45.671Z,53.50
2022-08-20T21:24:14.951Z,52.24
2022-08-20T21:26:44.858Z,52.78
2022-08-20T21:29:17.394Z,53.62
2022-08-20T21:31:46.420Z,54.29
2022-08-20T21:34:15.400Z,55.90
2022-08-20T21:36:42.896Z,56.01
2022-08-20T21:39:10.490Z,56.85
2022-08-20T21:41:40.267Z,56.99
2022-08-20T21:44:25.487Z,57.48
2022-08-20T21:46:54.706Z,57.66
2022-08-20T21:49:25.269Z,57.90
2022-08-20T21:51:55.053Z,57.84
2022-08-20T21:54:27.475Z,57.80
2022-08-20T21:57:04.211Z,58.00
2022-08-20T21:59:31.874Z,60.67
2022-08-20T22:02:01.245Z,61.03
2022-08-20T22:04:35.226Z,62.75
2022-08-20T22:07:03.478Z,62.85
2022-08-20T22:09:35.108Z,62.78
2022-08-20T22:12:07.488Z,62.78
2022-08-20T22:14:34.421Z,63.63
2022-08-20T22:17:01.331Z,63.96
2022-08-20T22:19:30.729Z,64.09
2022-08-20T22:24:27.091Z,64.53
2022-08-20T22:26:54.228Z,64.36
2022-08-20T22:29:21.216Z,65.11
2022-08-20T22:31:50.850Z,65.81
2022-08-20T22:34:22.441Z,65.90
2022-08-20T22:36:54.052Z,65.49
2022-08-20T22:39:21.090Z,65.23
2022-08-20T22:41:47.988Z,65.44
2022-08-20T22:44:14.872Z,65.69
2022-08-20T22:46:48.153Z,65.83
2022-08-20T22:49:22.610Z,65.66
2022-08-20T22:51:49.600Z,66.02
2022-08-20T22:54:22.351Z,66.10
2022-08-20T22:56:50.544Z,65.44
2022-08-20T22:59:21.265Z,65.52
2022-08-20T23:01:53.015Z,66.48
2022-08-20T23:04:30.413Z,66.65
2022-08-20T23:07:02.393Z,66.77
2022-08-20T23:09:30.328Z,66.76
2022-08-20T23:11:57.532Z,67.00
2022-08-20T23:14:27.031Z,66.34
2022-08-20T23:17:13.630Z,67.12
2022-08-20T23:19:45.538Z,68.16
2022-08-20T23:22:13.277Z,69.44
2022-08-20T23:24:40.786Z,69.68
2022-08-20T23:27:13.514Z,69.81
2022-08-20T23:29:40.793Z,69.61
2022-08-20T23:32:07.895Z,70.05
2022-08-20T23:34:34.820Z,70.69
2022-08-20T23:37:05.267Z,71.46
2022-08-20T23:39:32.322Z,71.38
2022-08-20T23:42:00.563Z,71.21
2022-08-20T23:44:28.501Z,71.15
2022-08-20T23:46:59.525Z,71.45
2022-08-20T23:49:28.306Z,71.00
2022-08-20T23:52:00.673Z,71.16
2022-08-20T23:54:30.158Z,71.62
2022-08-20T23:56:57.659Z,71.48
2022-08-20T23:59:27.267Z,71.14
